Santa Coloma de Cervello, Spain
Current Conditions -  °F | °C
As of 3:30 PM on Monday 24 Nov 2014 (Local Time) from LEBL Reporting Station
Few Clouds Few Clouds  
Wind Chill: 70°   Ceiling: Unl
Heat Index: 70°   Visibility: 6mi
Dew Point: 61°   Wind: 13mph
Humidity: 73%   Direction: 70°ENE
Pressure: 30"   Gusts: NA
Location:  41.37°N, 2.01°E
Report Text: LEBL 241430Z 07011KT 9999 FEW030 21/16 Q1016 NOSIG
Loading
Personal Weather Stations






























Interactive Weather Map New forecast layout! Learn more

10-Day Weather Forecast

Advertisements
Track Severe Weather on mobile